Hanford Works, Washington
Current Conditions -  °F | °C
As of 7:53 AM on Wednesday 28 Jan 2015 (Local Time) from KPSC Reporting Station
Haze Haze  
Wind Chill: 31°   Ceiling: 300
Heat Index: 35°   Visibility: 2mi
Dew Point: 35°   Wind: 5mph
Humidity: 100%   Direction: 330°NNW
Pressure: 30.41"   Gusts: NA
Location:  46.3844°N, 119.377°W
Report Text: KPSC 281553Z 33004KT 2SM BR OVC003 02/02 A3041 RMK AO2 SLP301 T00170017
Loading
Personal Weather Stations






























Interactive Weather Map New forecast layout! Learn more

10-Day Weather Forecast

Advertisements
Track Severe Weather on mobile